El Salvador, El Salvador

10:44 PM CST on September 01, 2014 (GMT -0600)
El Salvador International | Change Station
CLOSE
Current Station
Airport
Location: El Salvador,
Elevation: 82 ft
Nearby Weather Stations

Elev 82 ft 13.44 °N, 89.06 °W | Updated 54 minutes ago

Clear
Clear
77 °F
Feels Like 77 °F
N
5
Wind Variable Wind from North

Today
High -- | Low -- °F
--% Chance of Precip.
Yesterday
High -- | Low -- °F
Precip. -- in
5:44 AM 6:07 PM
Waxing Crescent, 47% visible
Pressure 29.89 in
Visibility -9999.0 miles
Clouds
Dew Point 77 °F
Humidity 100%
Rainfall 0.00 in
Snow Depth Not available.
UV Not available.
Pollen Not available.
Air Quality Not available.
Flu Activity Not available.
METAR MSLP 020350Z 01004KT 340V050 CAVOK 25/25 Q1012 A2990 DSTN CB LTGIC TO W

More Conditions Fewer Conditions

Pressure 29.89 in
Visibility -9999.0 miles
Clouds
Dew Point 77 °F
Humidity 100%
Rainfall 0.00 in
Snow Depth Not available.
UV Not available.
Pollen Not available.
Air Quality Not available.
Flu Activity Not available.
METAR MSLP 020350Z 01004KT 340V050 CAVOK 25/25 Q1012 A2990 DSTN CB LTGIC TO W

More Conditions Fewer Conditions

10-Day Weather Forecast

Almanac

Astronomy

Sep. 01, 2014 Rise Set
Actual Time 5:44 AM CST 6:07 PM CST
Civil Twilight 5:23 AM CST 6:28 PM CST
Nautical Twilight 4:58 AM CST 6:53 PM CST
Astronomical Twilight 4:32 AM CST 7:19 PM CST
Moon 11:25 AM CST (9/1) 11:15 PM CST (9/1)
Length of Visible Light 13h 05m
Length of Day
12h 22m
Tomorrow will be 0m 44s shorter.
Waxing Crescent, 47% of the Moon is Illuminated
Sep 2
Waxing Crescent
Sep 2
First Quarter
Sep 8
Full
Sep 15
Last Quarter
Sep 24
New

Today's Extremes

Country Highs Country Lows

Community

WunderPhotos

Upload Photos

1,749,573 photos uploaded!

WunderBlogs® & News

Nearby

Snow Depth

Not available.

Earthquake Activity

City Distance Mag. Time & Date
No recent earthquake activity has been reported nearby.
Minimum magnitude displayed is 2.5.

Coastal Water Temperatures

Place Temperature
No Stations Reporting

Nearby Weather Stations